Time;durP1;ratioP1;P1;durP2;ratioP2;P2;SDS_P1;SDS_P2;PMS_P1;PMS_P2;Temp;Humidity;BMP_temperature;BMP_pressure;BME280_temperature;BME280_humidity;BME280_pressure;Samples;Min_cycle;Max_cycle;Signal;HPM_P1;HPM_P2
2022/03/26 00:00:25;;;;;;;;;;;7.40;90.40;;;;;;5071073;28;19924;-49
2022/03/26 00:02:52;;;;;;;;;;;7.30;90.40;;;;;;5071382;28;19929;-51
2022/03/26 00:05:20;;;;;;;;;;;7.40;90.20;;;;;;5071441;28;19925;-50
2022/03/26 00:07:47;;;;;;;;;;;7.60;89.60;;;;;;5070964;28;20315;-49
2022/03/26 00:10:14;;;;;;;;;;;7.50;90.40;;;;;;5073226;28;19925;-50
2022/03/26 00:12:41;;;;;;;;;;;7.40;91.20;;;;;;5076081;28;19929;-50
2022/03/26 00:15:08;;;;;;;;;;;7.30;91.60;;;;;;5077229;28;19978;-50
2022/03/26 00:17:35;;;;;;;;;;;7.20;91.80;;;;;;5082601;28;20295;-51
2022/03/26 00:20:03;;;;;;;;;;;7.10;92.40;;;;;;5074820;28;19962;-50
2022/03/26 00:22:31;;;;;;;;;;;7.00;92.40;;;;;;5075087;28;19924;-50
2022/03/26 00:24:58;;;;;;;;;;;7.00;92.70;;;;;;5074803;28;20392;-50
2022/03/26 00:27:25;;;;;;;;;;;7.00;93.30;;;;;;5075094;28;19924;-50
2022/03/26 00:29:51;;;;;;;;;;;6.90;93.80;;;;;;5074843;28;19925;-50
2022/03/26 00:32:18;;;;;;;;;;;6.80;94.10;;;;;;5074483;28;20454;-51
2022/03/26 00:34:46;;;;;;;;;;;6.80;94.40;;;;;;5074839;28;19924;-51
2022/03/26 00:37:13;;;;;;;;;;;6.80;94.60;;;;;;5074912;28;19977;-50
2022/03/26 00:39:42;;;;;;;;;;;6.80;95.00;;;;;;5074864;28;19925;-50
2022/03/26 00:42:09;;;;;;;;;;;6.80;95.10;;;;;;5074299;28;19930;-50
2022/03/26 00:44:36;;;;;;;;;;;6.80;95.40;;;;;;5074748;28;19970;-50
2022/03/26 00:47:03;;;;;;;;;;;6.80;95.90;;;;;;5073830;28;19930;-51
2022/03/26 00:49:29;;;;;;;;;;;6.80;96.50;;;;;;5089456;28;20307;-50
2022/03/26 00:51:56;;;;;;;;;;;6.70;96.70;;;;;;5094858;28;19928;-50
2022/03/26 00:54:23;;;;;;;;;;;6.60;97.20;;;;;;5089345;28;19970;-51
2022/03/26 00:56:52;;;;;;;;;;;6.50;97.10;;;;;;5074380;28;20391;-51
2022/03/26 00:59:18;;;;;;;;;;;6.50;97.40;;;;;;5074222;28;19954;-50
2022/03/26 01:01:45;;;;;;;;;;;6.50;97.80;;;;;;5086794;28;19924;-50
2022/03/26 01:04:12;;;;;;;;;;;6.50;97.80;;;;;;5076143;28;19924;-50
2022/03/26 01:06:38;;;;;;;;;;;6.60;97.90;;;;;;5073721;28;19924;-51
2022/03/26 01:09:06;;;;;;;;;;;6.50;98.00;;;;;;5073803;28;20350;-50
2022/03/26 01:11:34;;;;;;;;;;;6.40;98.70;;;;;;5074002;28;19928;-51
2022/03/26 01:14:02;;;;;;;;;;;6.40;99.80;;;;;;5083707;28;19931;-50
2022/03/26 01:16:30;;;;;;;;;;;6.30;99.90;;;;;;5094333;28;20383;-51
2022/03/26 01:18:57;;;;;;;;;;;6.30;99.90;;;;;;5094102;28;20384;-50
2022/03/26 01:21:24;;;;;;;;;;;6.20;99.90;;;;;;5074122;28;19935;-49
2022/03/26 01:23:51;;;;;;;;;;;6.10;99.90;;;;;;5074665;28;20046;-50
2022/03/26 01:26:18;;;;;;;;;;;6.20;99.90;;;;;;5074908;28;19928;-50
2022/03/26 01:28:45;;;;;;;;;;;6.20;99.90;;;;;;5074090;28;19978;-50
2022/03/26 01:31:19;;;;;;;;;;;6.10;99.90;;;;;;5073827;28;19982;-51
2022/03/26 01:33:46;;;;;;;;;;;6.10;99.90;;;;;;5074217;28;19974;-51
2022/03/26 01:36:14;;;;;;;;;;;6.00;99.90;;;;;;5073545;28;20453;-50
2022/03/26 01:38:41;;;;;;;;;;;6.00;99.90;;;;;;5070491;28;19924;-50
2022/03/26 01:41:08;;;;;;;;;;;5.90;99.90;;;;;;5128292;22;19932;-56
2022/03/26 01:43:35;;;;;;;;;;;5.80;99.90;;;;;;5114404;28;19924;-57
2022/03/26 01:46:01;;;;;;;;;;;5.80;99.90;;;;;;5114287;28;20147;-57
2022/03/26 01:48:30;;;;;;;;;;;5.80;99.90;;;;;;5114426;28;20291;-57
2022/03/26 01:50:56;;;;;;;;;;;5.80;99.90;;;;;;5101416;28;19954;-57
2022/03/26 01:53:23;;;;;;;;;;;5.80;99.90;;;;;;5094256;28;19924;-57
2022/03/26 01:55:50;;;;;;;;;;;5.70;99.90;;;;;;5093576;28;20376;-57
2022/03/26 01:58:17;;;;;;;;;;;5.60;99.90;;;;;;5093712;28;20287;-56
2022/03/26 02:00:44;;;;;;;;;;;5.60;99.90;;;;;;5093598;28;19977;-56
2022/03/26 02:03:11;;;;;;;;;;;5.50;99.90;;;;;;5095689;28;19924;-56
2022/03/26 02:05:39;;;;;;;;;;;5.50;99.90;;;;;;5114350;28;19932;-56
2022/03/26 02:08:06;;;;;;;;;;;5.50;99.90;;;;;;5094529;28;20387;-56
2022/03/26 02:10:32;;;;;;;;;;;5.50;99.90;;;;;;5092891;28;19924;-58
2022/03/26 02:12:59;;;;;;;;;;;5.50;99.90;;;;;;5093436;28;19989;-57
2022/03/26 02:15:27;;;;;;;;;;;5.50;99.90;;;;;;5093753;28;19924;-57
2022/03/26 02:17:54;;;;;;;;;;;5.50;99.90;;;;;;5093885;28;20014;-58
2022/03/26 02:20:22;;;;;;;;;;;5.40;99.90;;;;;;5093536;28;19977;-57
2022/03/26 02:22:49;;;;;;;;;;;5.50;99.90;;;;;;5092666;28;19931;-56
2022/03/26 02:25:17;;;;;;;;;;;5.40;99.90;;;;;;5093920;28;19924;-56
2022/03/26 02:27:44;;;;;;;;;;;5.30;99.90;;;;;;5097594;28;19931;-56
2022/03/26 02:30:11;;;;;;;;;;;5.30;99.90;;;;;;5093161;28;19924;-56
2022/03/26 02:32:38;;;;;;;;;;;5.30;99.90;;;;;;5092719;28;19932;-56
2022/03/26 02:35:05;;;;;;;;;;;5.30;99.90;;;;;;5103511;28;19985;-56
2022/03/26 02:37:34;;;;;;;;;;;5.30;99.90;;;;;;5114228;28;19923;-57
2022/03/26 02:40:02;;;;;;;;;;;5.20;99.90;;;;;;5110145;28;19936;-56
2022/03/26 02:42:29;;;;;;;;;;;5.20;99.90;;;;;;5104495;28;20012;-56
2022/03/26 02:44:56;;;;;;;;;;;5.20;99.90;;;;;;5093267;28;20357;-56
2022/03/26 02:47:23;;;;;;;;;;;5.10;99.90;;;;;;5093129;28;19989;-56
2022/03/26 02:49:50;;;;;;;;;;;5.20;99.90;;;;;;5097005;28;20284;-56
2022/03/26 02:52:17;;;;;;;;;;;5.10;99.90;;;;;;5097210;28;19977;-56
2022/03/26 02:54:45;;;;;;;;;;;5.20;99.90;;;;;;5097898;28;19924;-56
2022/03/26 02:57:12;;;;;;;;;;;5.20;99.90;;;;;;5091075;28;19924;-56
2022/03/26 02:59:38;;;;;;;;;;;5.20;99.90;;;;;;5093378;28;19938;-57
2022/03/26 03:02:07;;;;;;;;;;;5.20;99.90;;;;;;5093353;28;19977;-57
2022/03/26 03:04:34;;;;;;;;;;;5.10;99.90;;;;;;5093658;28;19924;-57
2022/03/26 03:07:01;;;;;;;;;;;5.10;99.90;;;;;;5094484;28;19931;-57
2022/03/26 03:09:28;;;;;;;;;;;5.20;99.90;;;;;;5092992;28;20461;-57
2022/03/26 03:11:57;;;;;;;;;;;5.10;99.90;;;;;;5092625;28;19985;-58
2022/03/26 03:14:23;;;;;;;;;;;5.30;99.90;;;;;;5092971;28;20383;-57
2022/03/26 03:16:51;;;;;;;;;;;5.60;99.90;;;;;;5092465;28;19924;-58
2022/03/26 03:19:17;;;;;;;;;;;5.50;99.90;;;;;;5094049;28;19924;-58
2022/03/26 03:21:44;;;;;;;;;;;5.40;99.90;;;;;;5092991;28;20004;-57
2022/03/26 03:24:11;;;;;;;;;;;5.20;99.90;;;;;;5092839;28;19924;-58
2022/03/26 03:26:38;;;;;;;;;;;5.20;99.90;;;;;;5093295;28;19924;-58
2022/03/26 03:29:06;;;;;;;;;;;5.10;99.90;;;;;;5092391;28;19924;-57
2022/03/26 03:31:33;;;;;;;;;;;4.90;99.90;;;;;;5091774;28;19928;-57
2022/03/26 03:34:00;;;;;;;;;;;4.80;99.90;;;;;;5092352;28;19986;-57
2022/03/26 03:36:27;;;;;;;;;;;4.70;99.90;;;;;;5093014;28;19924;-58
2022/03/26 03:38:54;;;;;;;;;;;4.70;99.90;;;;;;5093259;28;20399;-58
2022/03/26 03:41:20;;;;;;;;;;;4.50;99.90;;;;;;5093451;28;19924;-58
2022/03/26 03:43:47;;;;;;;;;;;4.50;99.90;;;;;;5094391;28;19931;-58
2022/03/26 03:46:17;;;;;;;;;;;4.50;99.90;;;;;;5094328;28;20383;-58
2022/03/26 03:48:44;;;;;;;;;;;4.40;99.90;;;;;;5106422;28;19927;-58
2022/03/26 03:51:11;;;;;;;;;;;4.40;99.90;;;;;;5113019;28;20357;-57
2022/03/26 03:53:37;;;;;;;;;;;4.40;99.90;;;;;;5109544;28;19924;-58
2022/03/26 03:56:04;;;;;;;;;;;4.40;99.90;;;;;;5107511;28;19969;-57
2022/03/26 03:58:31;;;;;;;;;;;4.70;99.90;;;;;;5097841;28;19928;-58
2022/03/26 04:00:58;;;;;;;;;;;4.50;99.90;;;;;;5092222;28;19924;-57
2022/03/26 04:03:26;;;;;;;;;;;4.40;99.90;;;;;;5092618;28;19928;-57
2022/03/26 04:05:53;;;;;;;;;;;4.30;99.90;;;;;;5093075;28;19930;-58
2022/03/26 04:08:21;;;;;;;;;;;4.20;99.90;;;;;;5091093;28;20271;-57
2022/03/26 04:10:48;;;;;;;;;;;4.20;99.90;;;;;;5088879;28;19936;-58
2022/03/26 04:13:15;;;;;;;;;;;4.10;99.90;;;;;;5090728;28;20308;-58
2022/03/26 04:15:42;;;;;;;;;;;4.10;99.90;;;;;;5093795;28;19924;-57
2022/03/26 04:18:09;;;;;;;;;;;4.20;99.90;;;;;;5096656;28;20064;-58
2022/03/26 04:20:37;;;;;;;;;;;4.20;99.90;;;;;;5091612;28;19929;-57
2022/03/26 04:23:03;;;;;;;;;;;4.40;99.90;;;;;;5097870;28;20125;-57
2022/03/26 04:25:31;;;;;;;;;;;4.20;99.90;;;;;;5092484;28;19931;-57
2022/03/26 04:27:58;;;;;;;;;;;4.20;99.90;;;;;;5100612;28;19923;-57
2022/03/26 04:30:25;;;;;;;;;;;4.10;99.90;;;;;;5099298;28;20348;-57
2022/03/26 04:32:51;;;;;;;;;;;4.10;99.90;;;;;;5097670;28;19969;-58
2022/03/26 04:35:18;;;;;;;;;;;4.10;99.90;;;;;;5092675;28;19925;-57
2022/03/26 04:37:46;;;;;;;;;;;4.00;99.90;;;;;;5091205;28;20357;-58
2022/03/26 04:40:14;;;;;;;;;;;3.90;99.90;;;;;;5095273;28;19989;-57
2022/03/26 04:42:41;;;;;;;;;;;3.90;99.90;;;;;;5091232;28;19963;-57
2022/03/26 04:45:09;;;;;;;;;;;3.90;99.90;;;;;;5109695;28;19977;-57
2022/03/26 04:47:36;;;;;;;;;;;3.90;99.90;;;;;;5099905;28;19969;-58
2022/03/26 04:50:03;;;;;;;;;;;3.90;99.90;;;;;;5096665;28;20397;-57
2022/03/26 04:52:30;;;;;;;;;;;3.80;99.90;;;;;;5097473;28;20011;-58
2022/03/26 04:54:58;;;;;;;;;;;3.80;99.90;;;;;;5095820;28;20000;-57
2022/03/26 04:57:25;;;;;;;;;;;3.90;99.90;;;;;;5096347;28;19924;-57
2022/03/26 04:59:52;;;;;;;;;;;3.90;99.90;;;;;;5095260;28;19978;-57
2022/03/26 05:02:19;;;;;;;;;;;3.90;99.90;;;;;;5095245;28;19977;-57
2022/03/26 05:04:46;;;;;;;;;;;3.80;99.90;;;;;;5097614;28;19923;-57
2022/03/26 05:09:57;;;;;;;;;;;3.80;99.90;;;;;;5095812;28;19934;-57
2022/03/26 05:12:25;;;;;;;;;;;3.80;99.90;;;;;;5097378;28;20409;-58
2022/03/26 05:14:52;;;;;;;;;;;3.80;99.90;;;;;;5115586;28;19963;-58
2022/03/26 05:17:18;;;;;;;;;;;3.70;99.90;;;;;;5106726;28;19957;-57
2022/03/26 05:19:45;;;;;;;;;;;3.80;99.90;;;;;;5101174;28;20251;-59
2022/03/26 05:22:12;;;;;;;;;;;3.90;99.90;;;;;;5102230;28;19924;-58
2022/03/26 05:24:39;;;;;;;;;;;3.80;99.90;;;;;;5103698;28;19928;-58
2022/03/26 05:27:06;;;;;;;;;;;3.80;99.90;;;;;;5103306;28;19923;-57
2022/03/26 05:29:35;;;;;;;;;;;3.90;99.90;;;;;;5114885;28;19927;-57
2022/03/26 05:32:02;;;;;;;;;;;4.00;99.90;;;;;;5109564;28;19973;-57
2022/03/26 05:34:29;;;;;;;;;;;4.00;99.90;;;;;;5097260;28;20411;-57
2022/03/26 05:36:55;;;;;;;;;;;4.10;99.90;;;;;;5114116;28;19924;-57
2022/03/26 05:39:22;;;;;;;;;;;4.10;99.90;;;;;;5111249;28;19924;-57
2022/03/26 05:41:49;;;;;;;;;;;4.20;99.90;;;;;;5114253;28;19924;-56
2022/03/26 05:44:16;;;;;;;;;;;4.20;99.90;;;;;;5107803;28;19924;-57
2022/03/26 05:46:44;;;;;;;;;;;4.20;99.90;;;;;;5096850;28;19969;-57
2022/03/26 05:49:10;;;;;;;;;;;4.40;99.90;;;;;;5095092;28;19924;-57
2022/03/26 05:51:37;;;;;;;;;;;4.60;99.90;;;;;;5093686;28;19965;-57
2022/03/26 05:54:04;;;;;;;;;;;4.80;99.90;;;;;;5095781;28;19970;-58
2022/03/26 05:56:36;;;;;;;;;;;4.90;99.90;;;;;;5094370;28;20005;-57
2022/03/26 05:59:03;;;;;;;;;;;5.00;99.90;;;;;;5101562;28;19932;-57
2022/03/26 06:01:29;;;;;;;;;;;5.00;99.90;;;;;;5093952;28;19928;-57
2022/03/26 06:03:58;;;;;;;;;;;5.10;99.90;;;;;;5093698;28;19994;-57
2022/03/26 06:06:25;;;;;;;;;;;5.30;99.90;;;;;;5093034;28;19932;-57
2022/03/26 06:08:51;;;;;;;;;;;5.90;99.90;;;;;;5093858;28;19928;-57
2022/03/26 06:11:18;;;;;;;;;;;7.00;99.90;;;;;;5092526;28;19924;-57
2022/03/26 06:13:45;;;;;;;;;;;8.50;99.90;;;;;;5095592;28;20538;-57
2022/03/26 06:16:15;;;;;;;;;;;9.80;99.90;;;;;;5093285;28;19928;-57
2022/03/26 06:18:42;;;;;;;;;;;10.50;99.90;;;;;;5087231;28;20406;-57
2022/03/26 06:21:10;;;;;;;;;;;11.00;99.90;;;;;;5083832;28;20459;-57
2022/03/26 06:23:37;;;;;;;;;;;12.20;99.90;;;;;;5094626;28;19924;-57
2022/03/26 06:26:07;;;;;;;;;;;12.40;99.90;;;;;;5104234;28;20012;-57
2022/03/26 06:28:34;;;;;;;;;;;12.90;99.90;;;;;;5096984;28;19924;-57
2022/03/26 06:31:01;;;;;;;;;;;13.60;97.60;;;;;;5092375;28;19927;-57
2022/03/26 06:33:28;;;;;;;;;;;13.90;96.00;;;;;;5092628;28;19981;-57
2022/03/26 06:35:55;;;;;;;;;;;14.00;95.20;;;;;;5092102;28;19925;-57
2022/03/26 06:38:23;;;;;;;;;;;14.10;94.40;;;;;;5101665;28;19928;-57
2022/03/26 06:40:50;;;;;;;;;;;15.10;93.60;;;;;;5096261;28;20619;-57
2022/03/26 06:43:17;;;;;;;;;;;16.00;91.00;;;;;;5091340;28;19931;-58
2022/03/26 06:45:44;;;;;;;;;;;16.40;87.20;;;;;;5092052;28;19924;-58
2022/03/26 06:48:11;;;;;;;;;;;16.90;89.00;;;;;;5092396;28;19924;-58
2022/03/26 06:50:38;;;;;;;;;;;19.00;83.10;;;;;;5092622;28;20015;-58
2022/03/26 06:53:05;;;;;;;;;;;20.30;77.10;;;;;;5092282;28;19924;-58
2022/03/26 06:55:33;;;;;;;;;;;21.10;72.90;;;;;;5091625;28;20011;-58
2022/03/26 06:57:59;;;;;;;;;;;21.30;70.20;;;;;;5091543;28;19953;-58
2022/03/26 07:00:26;;;;;;;;;;;21.00;69.10;;;;;;5091592;28;19978;-58
2022/03/26 07:02:53;;;;;;;;;;;20.50;68.90;;;;;;5091313;28;19985;-58
2022/03/26 07:05:20;;;;;;;;;;;20.20;69.40;;;;;;5090998;28;19924;-58
2022/03/26 07:07:47;;;;;;;;;;;20.10;69.20;;;;;;5092078;28;19932;-58
2022/03/26 07:10:14;;;;;;;;;;;20.30;69.30;;;;;;5090963;28;19924;-59
2022/03/26 07:12:42;;;;;;;;;;;20.80;67.20;;;;;;5091447;28;19928;-58
2022/03/26 07:15:10;;;;;;;;;;;20.90;67.90;;;;;;5091256;28;20304;-58
2022/03/26 07:17:39;;;;;;;;;;;21.50;66.00;;;;;;5092561;28;19924;-59
2022/03/26 07:20:06;;;;;;;;;;;22.30;63.90;;;;;;5090579;28;19924;-58
2022/03/26 07:22:34;;;;;;;;;;;22.80;63.50;;;;;;5089691;28;19932;-58
2022/03/26 07:25:01;;;;;;;;;;;21.70;62.50;;;;;;5091639;28;20290;-58
2022/03/26 07:27:30;;;;;;;;;;;21.20;64.20;;;;;;5090853;28;20423;-59
2022/03/26 07:29:58;;;;;;;;;;;20.60;64.60;;;;;;5091425;28;19935;-59
2022/03/26 07:32:25;;;;;;;;;;;20.00;65.30;;;;;;5091382;28;19924;-60
2022/03/26 07:34:52;;;;;;;;;;;21.30;64.50;;;;;;5091137;28;20000;-59
2022/03/26 07:37:19;;;;;;;;;;;22.70;62.50;;;;;;5090931;28;19966;-58
2022/03/26 07:39:46;;;;;;;;;;;23.10;61.70;;;;;;5086757;28;19928;-59
2022/03/26 07:42:13;;;;;;;;;;;23.10;58.90;;;;;;5090466;28;20299;-59
2022/03/26 07:44:40;;;;;;;;;;;23.70;58.90;;;;;;5090780;28;19962;-58
2022/03/26 07:47:08;;;;;;;;;;;24.70;58.00;;;;;;5090604;28;19936;-60
2022/03/26 07:49:36;;;;;;;;;;;25.50;56.10;;;;;;5105305;28;19928;-59
2022/03/26 07:52:03;;;;;;;;;;;25.50;57.30;;;;;;5092858;28;19928;-59
2022/03/26 07:54:30;;;;;;;;;;;25.80;55.40;;;;;;5090604;28;19943;-59
2022/03/26 07:56:57;;;;;;;;;;;26.20;55.90;;;;;;5091127;28;19924;-59
2022/03/26 07:59:25;;;;;;;;;;;27.20;52.90;;;;;;5102917;28;19928;-59
2022/03/26 08:01:51;;;;;;;;;;;27.90;52.10;;;;;;5090621;28;19931;-59
2022/03/26 08:04:20;;;;;;;;;;;28.70;51.20;;;;;;5091239;28;19981;-60
2022/03/26 08:06:47;;;;;;;;;;;29.20;49.90;;;;;;5090562;28;19924;-59
2022/03/26 08:09:14;;;;;;;;;;;29.60;48.80;;;;;;5090390;28;20023;-60
2022/03/26 08:11:42;;;;;;;;;;;29.20;48.20;;;;;;5089516;28;19939;-60
2022/03/26 08:14:09;;;;;;;;;;;29.30;48.20;;;;;;5090878;28;19968;-60
2022/03/26 08:16:37;;;;;;;;;;;28.90;48.90;;;;;;5088804;28;19978;-60
2022/03/26 08:19:04;;;;;;;;;;;28.80;48.40;;;;;;5081524;28;19928;-60
2022/03/26 08:21:35;;;;;;;;;;;28.90;48.10;;;;;;5090821;28;20413;-60
2022/03/26 08:24:01;;;;;;;;;;;29.20;47.20;;;;;;5090947;28;19935;-60
2022/03/26 08:26:29;;;;;;;;;;;28.60;47.90;;;;;;5090848;28;19973;-61
2022/03/26 08:28:58;;;;;;;;;;;29.60;48.10;;;;;;5090988;28;19924;-60
2022/03/26 08:31:26;;;;;;;;;;;28.70;48.30;;;;;;5081156;28;19963;-60
2022/03/26 08:33:53;;;;;;;;;;;29.10;49.20;;;;;;5094420;28;20478;-60
2022/03/26 08:36:23;;;;;;;;;;;30.10;49.00;;;;;;5096145;28;19924;-61
2022/03/26 08:38:52;;;;;;;;;;;29.60;48.30;;;;;;5095125;28;20011;-61
2022/03/26 08:41:20;;;;;;;;;;;29.20;50.10;;;;;;5082555;28;19932;-60
2022/03/26 08:43:47;;;;;;;;;;;29.60;49.50;;;;;;5094772;28;19925;-60
2022/03/26 08:46:14;;;;;;;;;;;28.00;48.00;;;;;;5094881;28;19928;-60
2022/03/26 08:48:41;;;;;;;;;;;27.70;49.00;;;;;;5091326;28;19924;-60
2022/03/26 08:51:08;;;;;;;;;;;28.40;49.10;;;;;;5084217;28;19924;-60
2022/03/26 08:53:34;;;;;;;;;;;25.90;51.30;;;;;;5119323;22;19934;-53
2022/03/26 08:56:04;;;;;;;;;;;27.30;50.50;;;;;;5108313;28;19923;-54
2022/03/26 08:58:31;;;;;;;;;;;28.30;47.90;;;;;;5110355;28;19924;-53
2022/03/26 09:00:58;;;;;;;;;;;28.60;48.00;;;;;;5099252;28;19924;-54
2022/03/26 09:03:25;;;;;;;;;;;28.50;49.30;;;;;;5096746;28;19979;-54
2022/03/26 09:05:52;;;;;;;;;;;28.80;49.00;;;;;;5094467;28;20540;-53
2022/03/26 09:08:19;;;;;;;;;;;29.70;48.40;;;;;;5084523;28;19924;-54
2022/03/26 09:10:46;;;;;;;;;;;30.10;48.60;;;;;;5089781;28;19924;-54
2022/03/26 09:13:15;;;;;;;;;;;30.10;46.80;;;;;;5093036;28;20403;-54
2022/03/26 09:15:41;;;;;;;;;;;30.60;47.20;;;;;;5088791;28;19978;-53
2022/03/26 09:18:09;;;;;;;;;;;29.90;47.10;;;;;;5091315;28;19924;-53
2022/03/26 09:20:36;;;;;;;;;;;28.40;46.10;;;;;;5090978;28;19959;-54
2022/03/26 09:23:03;;;;;;;;;;;28.20;49.30;;;;;;5091709;28;19986;-53
2022/03/26 09:25:30;;;;;;;;;;;27.20;52.00;;;;;;5093110;28;19924;-53
2022/03/26 09:27:57;;;;;;;;;;;27.00;52.20;;;;;;5092226;28;19924;-53
2022/03/26 09:30:25;;;;;;;;;;;27.20;52.80;;;;;;5092810;28;19928;-53
2022/03/26 09:32:52;;;;;;;;;;;27.30;51.90;;;;;;5085083;28;19977;-53
2022/03/26 09:35:19;;;;;;;;;;;28.40;52.50;;;;;;5087525;28;19977;-54
2022/03/26 09:37:46;;;;;;;;;;;28.30;52.20;;;;;;5082455;28;19932;-53
2022/03/26 09:40:12;;;;;;;;;;;27.70;49.70;;;;;;5086991;28;19970;-53
2022/03/26 09:42:40;;;;;;;;;;;26.40;51.90;;;;;;5089223;28;19932;-53
2022/03/26 09:45:07;;;;;;;;;;;25.50;54.00;;;;;;5088880;28;19978;-53
2022/03/26 09:47:36;;;;;;;;;;;26.40;52.20;;;;;;5089452;28;19924;-53
2022/03/26 09:50:04;;;;;;;;;;;27.10;50.10;;;;;;5087839;28;20082;-53
2022/03/26 09:52:31;;;;;;;;;;;27.40;50.40;;;;;;5091649;28;20000;-53
2022/03/26 09:54:58;;;;;;;;;;;27.70;51.70;;;;;;5092632;28;19924;-53
2022/03/26 09:57:25;;;;;;;;;;;28.40;50.30;;;;;;5091241;28;19928;-53
2022/03/26 09:59:51;;;;;;;;;;;27.80;49.20;;;;;;5085839;28;19935;-53
2022/03/26 10:02:18;;;;;;;;;;;27.40;51.20;;;;;;5091926;28;19924;-53
2022/03/26 10:04:47;;;;;;;;;;;26.00;53.30;;;;;;5093048;28;20448;-52
2022/03/26 10:07:14;;;;;;;;;;;25.40;54.60;;;;;;5092987;28;19932;-53
2022/03/26 10:09:41;;;;;;;;;;;24.20;56.10;;;;;;5093365;28;19930;-53
2022/03/26 10:12:10;;;;;;;;;;;22.70;57.30;;;;;;5092933;28;20011;-53
2022/03/26 10:14:40;;;;;;;;;;;22.80;57.20;;;;;;5092192;28;19924;-53
2022/03/26 10:17:11;;;;;;;;;;;22.70;57.20;;;;;;5091538;28;19924;-56
2022/03/26 10:19:41;;;;;;;;;;;22.50;56.90;;;;;;5091866;28;19924;-52
2022/03/26 10:22:12;;;;;;;;;;;23.50;55.60;;;;;;5088294;28;20001;-53
2022/03/26 10:24:43;;;;;;;;;;;25.00;53.80;;;;;;5081522;28;19925;-53
2022/03/26 10:27:11;;;;;;;;;;;26.20;53.20;;;;;;5090918;28;20324;-53
2022/03/26 10:29:48;;;;;;;;;;;25.20;54.20;;;;;;5092111;28;19924;-52
2022/03/26 10:35:06;;;;;;;;;;;24.60;55.60;;;;;;5082940;28;20064;-53
2022/03/26 10:37:41;;;;;;;;;;;23.90;54.90;;;;;;5090599;28;19924;-53
2022/03/26 10:40:21;;;;;;;;;;;23.90;54.30;;;;;;5084081;28;19987;-53
2022/03/26 10:42:59;;;;;;;;;;;25.50;53.20;;;;;;5091313;28;19977;-53
2022/03/26 10:45:26;;;;;;;;;;;26.40;54.40;;;;;;5090156;28;19935;-54
2022/03/26 10:47:54;;;;;;;;;;;26.10;51.40;;;;;;5072526;28;19932;-54
2022/03/26 10:50:20;;;;;;;;;;;26.60;51.10;;;;;;5079376;28;19985;-53
2022/03/26 10:52:49;;;;;;;;;;;26.70;50.30;;;;;;5081934;28;19928;-54
2022/03/26 10:55:16;;;;;;;;;;;25.30;53.10;;;;;;5089866;28;19924;-53
2022/03/26 10:57:45;;;;;;;;;;;23.80;53.60;;;;;;5091707;28;19924;-54
2022/03/26 11:00:12;;;;;;;;;;;23.20;53.30;;;;;;5092234;28;19935;-54
2022/03/26 11:02:39;;;;;;;;;;;22.40;56.40;;;;;;5090957;28;19924;-53
2022/03/26 11:05:06;;;;;;;;;;;21.70;54.50;;;;;;5089311;28;20359;-49
2022/03/26 11:07:34;;;;;;;;;;;21.40;55.50;;;;;;5091761;28;19924;-50
2022/03/26 11:10:04;;;;;;;;;;;20.60;58.00;;;;;;5091584;28;19982;-50
2022/03/26 11:12:31;;;;;;;;;;;19.60;61.10;;;;;;5092202;28;19985;-49
2022/03/26 11:14:59;;;;;;;;;;;19.60;58.70;;;;;;5091646;28;19924;-50
2022/03/26 11:17:29;;;;;;;;;;;19.80;58.90;;;;;;5091509;28;19993;-50
2022/03/26 11:20:07;;;;;;;;;;;19.40;59.90;;;;;;5091365;28;20444;-50
2022/03/26 11:22:44;;;;;;;;;;;19.80;60.80;;;;;;5090888;28;20006;-50
2022/03/26 11:25:17;;;;;;;;;;;19.40;61.70;;;;;;5091889;28;20031;-49
2022/03/26 11:27:50;;;;;;;;;;;19.80;64.80;;;;;;5091714;28;19924;-49
2022/03/26 11:30:20;;;;;;;;;;;20.10;63.60;;;;;;5091187;28;19963;-50
2022/03/26 11:32:49;;;;;;;;;;;19.60;59.20;;;;;;5090723;28;19932;-50
2022/03/26 11:35:17;;;;;;;;;;;19.70;65.80;;;;;;5090921;28;19930;-50
2022/03/26 11:37:50;;;;;;;;;;;19.80;65.00;;;;;;5090679;28;20288;-50
2022/03/26 11:40:40;;;;;;;;;;;19.60;63.20;;;;;;5091247;28;19924;-50
2022/03/26 11:43:07;;;;;;;;;;;20.10;58.20;;;;;;5076100;28;19923;-50
2022/03/26 11:51:19;;;;;;;;;;;19.40;60.20;;;;;;5088270;28;19980;-50
2022/03/26 11:53:49;;;;;;;;;;;19.50;63.30;;;;;;5090327;28;20387;-50
2022/03/26 11:56:24;;;;;;;;;;;19.70;61.00;;;;;;5090296;28;20411;-50
2022/03/26 11:59:07;;;;;;;;;;;19.90;60.50;;;;;;5090820;28;19954;-50
2022/03/26 12:01:37;;;;;;;;;;;20.20;62.80;;;;;;5089424;28;19931;-50
2022/03/26 12:04:11;;;;;;;;;;;20.00;62.20;;;;;;5090312;28;19924;-50
2022/03/26 12:06:49;;;;;;;;;;;20.20;63.00;;;;;;5095911;28;19924;-50
2022/03/26 12:09:29;;;;;;;;;;;20.00;64.30;;;;;;5095261;28;19924;-50
2022/03/26 12:12:19;;;;;;;;;;;19.60;63.30;;;;;;5077999;28;20000;-50
2022/03/26 12:15:05;;;;;;;;;;;19.30;64.40;;;;;;5078127;28;19957;-52
2022/03/26 12:17:46;;;;;;;;;;;19.10;65.10;;;;;;5084025;28;20411;-51
2022/03/26 12:20:20;;;;;;;;;;;19.40;63.30;;;;;;5094719;28;19927;-51
2022/03/26 12:22:49;;;;;;;;;;;19.90;63.20;;;;;;5084721;28;19927;-51
2022/03/26 12:25:16;;;;;;;;;;;20.00;66.90;;;;;;5092804;28;19928;-51
2022/03/26 12:27:43;;;;;;;;;;;19.70;67.20;;;;;;5087418;28;19963;-51
2022/03/26 12:30:11;;;;;;;;;;;19.60;64.50;;;;;;5094912;28;19959;-51
2022/03/26 12:32:39;;;;;;;;;;;19.70;66.10;;;;;;5094286;28;19924;-51
2022/03/26 12:35:09;;;;;;;;;;;19.70;63.30;;;;;;5094399;28;20480;-51
2022/03/26 12:37:36;;;;;;;;;;;19.90;66.70;;;;;;5094152;28;19924;-51
2022/03/26 12:40:05;;;;;;;;;;;20.10;68.00;;;;;;5093977;28;20359;-51
2022/03/26 12:42:32;;;;;;;;;;;20.10;64.90;;;;;;5094118;28;19924;-52
2022/03/26 12:44:58;;;;;;;;;;;20.10;66.10;;;;;;5094526;28;20303;-52
2022/03/26 12:47:26;;;;;;;;;;;20.50;66.60;;;;;;5094015;28;19924;-52
2022/03/26 12:49:54;;;;;;;;;;;20.70;65.70;;;;;;5090595;28;19932;-52
2022/03/26 12:52:23;;;;;;;;;;;20.80;64.20;;;;;;5093496;28;20010;-51
2022/03/26 12:54:53;;;;;;;;;;;20.90;67.00;;;;;;5091534;28;19924;-52
2022/03/26 12:57:20;;;;;;;;;;;20.40;67.10;;;;;;5086474;28;19924;-52
2022/03/26 12:59:50;;;;;;;;;;;20.60;65.50;;;;;;5092719;28;19924;-52
2022/03/26 13:02:17;;;;;;;;;;;20.60;68.00;;;;;;5093563;28;19981;-52
2022/03/26 13:04:43;;;;;;;;;;;20.50;67.50;;;;;;5093551;28;20353;-51
2022/03/26 13:07:10;;;;;;;;;;;20.70;66.30;;;;;;5094068;28;20447;-51
2022/03/26 13:09:38;;;;;;;;;;;20.50;64.70;;;;;;5093977;28;19961;-52
2022/03/26 13:12:05;;;;;;;;;;;20.70;62.70;;;;;;5094139;28;20000;-52
2022/03/26 13:14:32;;;;;;;;;;;20.60;64.70;;;;;;5094169;28;20344;-51
2022/03/26 13:16:59;;;;;;;;;;;20.60;65.70;;;;;;5093473;28;19924;-53
2022/03/26 13:19:32;;;;;;;;;;;20.60;67.50;;;;;;5093731;28;19930;-51
2022/03/26 13:22:02;;;;;;;;;;;20.40;66.00;;;;;;5093157;28;19925;-52
2022/03/26 13:24:29;;;;;;;;;;;20.10;66.40;;;;;;5093562;28;20343;-52
2022/03/26 13:27:02;;;;;;;;;;;19.90;64.20;;;;;;5092658;28;20466;-52
2022/03/26 13:29:30;;;;;;;;;;;20.50;65.70;;;;;;5093676;28;19963;-53
2022/03/26 13:31:58;;;;;;;;;;;20.60;65.60;;;;;;5093377;28;19950;-52
2022/03/26 13:34:26;;;;;;;;;;;20.70;65.00;;;;;;5093053;28;19928;-52
2022/03/26 13:36:53;;;;;;;;;;;20.60;64.80;;;;;;5093118;28;19998;-52
2022/03/26 13:39:21;;;;;;;;;;;20.60;69.10;;;;;;5092453;28;19975;-51
2022/03/26 13:41:48;;;;;;;;;;;20.60;66.10;;;;;;5093104;28;19924;-52
2022/03/26 13:44:17;;;;;;;;;;;20.10;65.30;;;;;;5092578;28;19986;-52
2022/03/26 13:46:44;;;;;;;;;;;20.20;67.10;;;;;;5093489;28;19928;-51
2022/03/26 13:49:23;;;;;;;;;;;20.20;66.50;;;;;;5090879;28;19924;-51
2022/03/26 13:51:50;;;;;;;;;;;20.20;62.30;;;;;;5092763;28;19924;-51
2022/03/26 13:54:19;;;;;;;;;;;20.30;64.20;;;;;;5092708;28;19924;-51
2022/03/26 13:56:55;;;;;;;;;;;20.50;67.00;;;;;;5092747;28;19924;-51
2022/03/26 13:59:26;;;;;;;;;;;20.50;67.10;;;;;;5092925;28;19928;-52
2022/03/26 14:01:53;;;;;;;;;;;20.70;66.50;;;;;;5092771;28;20026;-50
2022/03/26 14:04:24;;;;;;;;;;;20.60;65.90;;;;;;5090917;28;19928;-51
2022/03/26 14:06:52;;;;;;;;;;;20.50;67.00;;;;;;5092961;28;19924;-51
2022/03/26 14:09:19;;;;;;;;;;;20.30;63.60;;;;;;5089472;28;19933;-51
2022/03/26 14:11:45;;;;;;;;;;;20.20;67.90;;;;;;5084509;28;20520;-51
2022/03/26 14:14:12;;;;;;;;;;;20.30;64.30;;;;;;5092618;28;19924;-50
2022/03/26 14:16:40;;;;;;;;;;;20.30;65.20;;;;;;5092663;28;20355;-51
2022/03/26 14:19:07;;;;;;;;;;;20.30;64.70;;;;;;5092985;28;19924;-50
2022/03/26 14:21:34;;;;;;;;;;;20.10;65.50;;;;;;5092809;28;19928;-50
2022/03/26 14:24:01;;;;;;;;;;;20.00;65.70;;;;;;5092807;28;20003;-51
2022/03/26 14:26:28;;;;;;;;;;;19.90;63.50;;;;;;5092750;28;19969;-50
2022/03/26 14:28:54;;;;;;;;;;;19.80;64.50;;;;;;5092453;28;20310;-50
2022/03/26 14:31:21;;;;;;;;;;;19.80;64.70;;;;;;5092493;28;19924;-50
2022/03/26 14:33:49;;;;;;;;;;;20.00;63.50;;;;;;5089837;28;19924;-51
2022/03/26 14:36:16;;;;;;;;;;;20.00;64.70;;;;;;5091691;28;19928;-51
2022/03/26 14:38:43;;;;;;;;;;;19.80;63.10;;;;;;5092686;28;19924;-51